createdAt,value
2019-02-09T05:00:42.375Z,0
2019-02-09T05:04:10.242Z,0
2019-02-09T05:07:38.143Z,0
2019-02-09T05:11:06.017Z,0
2019-02-09T05:14:33.887Z,0
2019-02-09T05:18:01.763Z,0
2019-02-09T05:21:29.617Z,0
2019-02-09T05:24:57.490Z,0
2019-02-09T05:28:25.365Z,0
2019-02-09T05:31:53.218Z,0
2019-02-09T05:35:21.087Z,0
2019-02-09T05:38:48.976Z,0
2019-02-09T05:42:16.852Z,0
2019-02-09T05:45:44.704Z,0
2019-02-09T05:49:12.580Z,0
2019-02-09T05:52:40.460Z,0
2019-02-09T05:56:08.326Z,0
2019-02-09T05:59:36.196Z,0
2019-02-09T06:03:04.063Z,0
2019-02-09T06:06:31.915Z,0
2019-02-09T06:09:59.789Z,0
2019-02-09T06:13:27.659Z,1
2019-02-09T06:16:55.594Z,1
2019-02-09T06:20:23.453Z,2
2019-02-09T06:23:51.320Z,4
2019-02-09T06:27:19.183Z,7
2019-02-09T06:30:48.021Z,11
2019-02-09T06:34:15.906Z,15
2019-02-09T06:37:43.781Z,24
2019-02-09T06:41:11.635Z,37
2019-02-09T06:44:39.509Z,55
2019-02-09T06:48:07.373Z,91
2019-02-09T06:51:35.246Z,127
2019-02-09T06:55:03.103Z,141
2019-02-09T06:58:30.979Z,140
2019-02-09T07:01:58.845Z,140
2019-02-09T07:05:26.719Z,144
2019-02-09T07:08:54.586Z,174
2019-02-09T07:12:23.433Z,207
2019-02-09T07:15:51.305Z,253
2019-02-09T07:19:19.195Z,376
2019-02-09T07:22:47.042Z,498
2019-02-09T07:26:14.912Z,537
2019-02-09T07:29:42.774Z,648
2019-02-09T07:33:10.637Z,939
2019-02-09T07:36:38.488Z,977
2019-02-09T07:40:06.380Z,828
2019-02-09T07:43:34.245Z,875
2019-02-09T07:47:03.093Z,706
2019-02-09T07:50:31.047Z,886
2019-02-09T07:53:59.114Z,1073
2019-02-09T07:57:27.083Z,1240
2019-02-09T08:00:54.934Z,1169
2019-02-09T08:04:22.814Z,1150
2019-02-09T08:07:50.682Z,1235
2019-02-09T08:11:19.527Z,1149
2019-02-09T08:14:47.412Z,734
2019-02-09T08:18:17.679Z,914
2019-02-09T08:21:47.507Z,1021
2019-02-09T08:25:15.377Z,1344
2019-02-09T08:28:43.262Z,1565
2019-02-09T08:32:14.115Z,1939
2019-02-09T08:35:43.086Z,2021
2019-02-09T08:39:11.038Z,1934
2019-02-09T08:42:39.958Z,2191
2019-02-09T08:46:08.773Z,2268
2019-02-09T08:49:36.650Z,2146
2019-02-09T08:53:05.516Z,2062
2019-02-09T08:56:34.393Z,2518
2019-02-09T09:00:02.289Z,2621
2019-02-09T09:03:31.142Z,1910
2019-02-09T09:06:59.012Z,1584
2019-02-09T09:10:27.980Z,1400
2019-02-09T09:13:55.848Z,1921
2019-02-09T09:17:23.698Z,3619
2019-02-09T09:20:51.573Z,4291
2019-02-09T09:24:20.465Z,4308
2019-02-09T09:27:49.638Z,5180
2019-02-09T09:31:17.707Z,2864
2019-02-09T09:34:45.632Z,3196
2019-02-09T09:38:13.600Z,2910
2019-02-09T09:41:41.477Z,1747
2019-02-09T09:45:10.360Z,1896
2019-02-09T09:48:38.268Z,3600
2019-02-09T09:52:06.136Z,3752
2019-02-09T09:55:34.045Z,2622
2019-02-09T09:59:01.922Z,2931
2019-02-09T10:02:36.387Z,4607
2019-02-09T10:06:01.610Z,3642
2019-02-09T10:09:29.478Z,4017
2019-02-09T10:12:57.357Z,3527
2019-02-09T10:16:25.220Z,2732
2019-02-09T10:19:53.110Z,3353
2019-02-09T10:23:21.020Z,4693
2019-02-09T10:26:50.007Z,4059
2019-02-09T10:30:17.958Z,4269
2019-02-09T10:33:45.868Z,3910
2019-02-09T10:37:13.781Z,4295
2019-02-09T10:40:41.660Z,6413
2019-02-09T10:44:09.529Z,7052
2019-02-09T10:47:37.387Z,4387
2019-02-09T10:51:05.263Z,5900
2019-02-09T10:54:34.136Z,6658
2019-02-09T10:58:02.019Z,7095
2019-02-09T12:45:24.022Z,2528
2019-02-09T12:48:53.886Z,1769
2019-02-09T12:52:23.715Z,1563
2019-02-09T12:55:53.570Z,711
2019-02-09T12:59:23.505Z,1084
2019-02-09T13:02:53.482Z,1270
2019-02-09T13:06:23.336Z,1221
2019-02-09T13:09:53.224Z,5600
2019-02-09T13:13:23.067Z,32872
2019-02-09T13:16:52.963Z,64928
2019-02-09T13:20:23.767Z,60312
2019-02-09T13:23:53.616Z,10832
2019-02-09T13:27:23.462Z,25120
2019-02-09T13:30:54.315Z,27368
2019-02-09T13:34:24.192Z,7484
2019-02-09T13:37:54.150Z,3852
2019-02-09T13:41:24.245Z,2707
2019-02-09T13:44:54.224Z,2205
2019-02-09T13:48:24.209Z,1670
2019-02-09T13:51:54.050Z,1162
2019-02-09T13:55:23.908Z,4504
2019-02-09T13:58:53.803Z,1655
2019-02-09T14:02:23.635Z,904
2019-02-09T14:05:53.498Z,735
2019-02-09T14:09:23.379Z,1658
2019-02-09T14:12:53.220Z,683
2019-02-09T14:16:23.079Z,485
2019-02-09T14:19:52.933Z,975
2019-02-09T14:23:22.770Z,1783
2019-02-09T14:26:52.618Z,1870
2019-02-09T14:30:22.526Z,1436
2019-02-09T14:33:55.505Z,1497
2019-02-09T14:37:25.231Z,1435
2019-02-09T14:40:55.068Z,1361
2019-02-09T14:44:24.925Z,1249
2019-02-09T14:47:54.791Z,1149
2019-02-09T14:51:24.658Z,1014
2019-02-09T14:54:55.492Z,896
2019-02-09T14:58:25.345Z,1391
2019-02-09T15:01:55.200Z,1566
2019-02-09T15:05:25.077Z,1353
2019-02-09T15:08:54.930Z,1023
2019-02-09T15:12:24.797Z,831
2019-02-09T15:15:54.658Z,609
2019-02-09T15:19:24.512Z,576
2019-02-09T15:22:54.374Z,556
2019-02-09T15:26:24.262Z,505
2019-02-09T15:29:54.090Z,486
2019-02-09T15:33:23.955Z,513
2019-02-09T15:36:53.820Z,578
2019-02-09T15:40:23.691Z,497
2019-02-09T15:43:53.548Z,423
2019-02-09T15:47:23.420Z,347
2019-02-09T15:50:53.270Z,267
2019-02-09T15:54:23.131Z,234
2019-02-09T15:57:53.042Z,209
2019-02-09T16:01:23.904Z,169
2019-02-09T16:04:53.754Z,124
2019-02-09T16:08:23.623Z,85
2019-02-09T16:11:53.788Z,48
2019-02-09T16:15:23.651Z,31
2019-02-09T16:18:54.200Z,19
2019-02-09T16:22:24.160Z,11
2019-02-09T16:25:54.097Z,6
2019-02-09T16:29:23.970Z,4
2019-02-09T16:32:54.889Z,3
2019-02-09T16:36:24.746Z,1
2019-02-09T16:39:54.609Z,1
2019-02-09T16:43:24.472Z,1
2019-02-09T16:46:54.351Z,0
2019-02-09T16:50:24.239Z,0
2019-02-09T16:53:54.111Z,0
2019-02-09T16:57:23.992Z,0
2019-02-09T17:00:53.899Z,0
2019-02-09T17:04:23.790Z,0
2019-02-09T17:07:54.650Z,0
2019-02-09T17:11:24.499Z,0
2019-02-09T17:14:54.470Z,0
2019-02-09T17:18:24.336Z,0
2019-02-09T17:21:54.184Z,0
2019-02-09T17:25:24.070Z,0
2019-02-09T17:28:53.905Z,0
2019-02-09T17:32:23.772Z,0
2019-02-09T17:35:53.693Z,0
2019-02-09T17:39:23.540Z,0
2019-02-09T17:42:55.398Z,0
2019-02-09T17:46:25.359Z,0
2019-02-09T17:49:55.204Z,0
2019-02-09T17:53:25.094Z,0
2019-02-09T17:56:54.970Z,0
2019-02-09T18:00:24.848Z,0
2019-02-09T18:03:54.864Z,0
2019-02-09T18:07:24.807Z,0
2019-02-09T18:10:54.799Z,0
2019-02-09T18:14:24.651Z,0
2019-02-09T18:17:54.536Z,0
2019-02-09T18:21:25.021Z,0
2019-02-09T18:24:55.208Z,0
2019-02-09T18:28:25.243Z,0
2019-02-09T18:31:55.116Z,0
2019-02-09T18:35:24.976Z,0
2019-02-09T18:38:54.846Z,0
2019-02-09T18:42:24.742Z,0
2019-02-09T18:45:58.063Z,0
2019-02-09T18:49:27.657Z,0
2019-02-09T18:52:57.541Z,0
2019-02-09T18:56:27.412Z,0
2019-02-09T18:59:57.268Z,0
2019-02-09T19:03:27.123Z,0
2019-02-09T19:06:57.009Z,0
2019-02-09T19:10:26.936Z,0
2019-02-09T19:13:56.849Z,0
2019-02-09T19:17:26.802Z,0
2019-02-09T19:20:57.069Z,0
2019-02-09T19:24:26.930Z,0
2019-02-09T19:27:57.161Z,0
2019-02-09T19:31:27.031Z,0
2019-02-09T19:34:56.902Z,0
2019-02-09T19:38:26.808Z,0
2019-02-09T19:41:57.778Z,0
2019-02-09T19:45:27.840Z,0
2019-02-09T19:48:57.776Z,0
2019-02-09T19:52:27.634Z,0
2019-02-09T19:55:57.487Z,0
2019-02-09T19:59:28.339Z,0
2019-02-09T20:02:58.257Z,0
2019-02-09T20:06:28.259Z,0
2019-02-09T20:09:59.112Z,0
2019-02-09T20:13:29.320Z,0
2019-02-09T20:16:59.447Z,0
2019-02-09T20:20:29.313Z,0
2019-02-09T20:23:59.190Z,0
2019-02-09T20:27:29.079Z,0
2019-02-09T20:30:58.971Z,0
2019-02-09T20:34:28.876Z,0
2019-02-09T20:37:59.745Z,0
2019-02-09T20:41:29.601Z,0
2019-02-09T20:44:59.486Z,0
2019-02-09T20:48:29.364Z,0
2019-02-09T20:51:59.200Z,0
2019-02-09T20:55:29.057Z,0
2019-02-09T20:58:58.927Z,0
2019-02-09T21:02:28.773Z,0
2019-02-09T21:05:58.680Z,0
2019-02-09T21:09:28.612Z,0
2019-02-09T21:12:58.576Z,0
2019-02-09T21:16:29.405Z,0
2019-02-09T21:19:59.290Z,0
2019-02-09T21:23:29.158Z,0
2019-02-09T21:26:59.031Z,0
2019-02-09T21:30:28.904Z,0
2019-02-09T21:33:58.797Z,0
2019-02-09T21:37:28.675Z,0
2019-02-09T21:40:58.541Z,0
2019-02-09T21:44:28.389Z,0
2019-02-09T21:47:58.253Z,0
2019-02-09T21:51:28.116Z,0
2019-02-09T21:54:57.997Z,0
2019-02-09T21:58:27.864Z,0
2019-02-09T22:01:57.731Z,0
2019-02-09T22:05:28.624Z,0
2019-02-09T22:08:58.483Z,0
2019-02-09T22:12:28.314Z,0
2019-02-09T22:15:58.180Z,0
2019-02-09T22:19:28.048Z,0
2019-02-09T22:22:57.895Z,0
2019-02-09T22:26:27.784Z,0
2019-02-09T22:29:57.768Z,0
2019-02-09T22:33:27.591Z,0
2019-02-09T22:36:57.447Z,0
2019-02-09T22:40:27.403Z,0
2019-02-09T22:43:57.274Z,0
2019-02-09T22:47:27.146Z,0
2019-02-09T22:50:57.004Z,0
2019-02-09T22:54:26.885Z,0
2019-02-09T22:57:56.749Z,0
